createdAt,value
2018-12-29T00:08:38.491Z,7.00
2018-12-29T00:38:44.724Z,5.87
2018-12-29T01:08:50.806Z,4.60
2018-12-29T01:38:57.411Z,4.00
2018-12-29T02:09:04.563Z,4.00
2018-12-29T02:39:10.764Z,5.03
2018-12-29T03:09:17.160Z,18.03
2018-12-29T03:39:23.462Z,10.53
2018-12-29T04:09:36.439Z,11.10
2018-12-29T04:39:42.654Z,16.43
2018-12-29T05:09:49.037Z,19.97
2018-12-29T05:39:55.460Z,16.53
2018-12-29T06:10:01.695Z,21.57
2018-12-29T06:40:11.678Z,20.37
2018-12-29T07:10:17.919Z,17.37
2018-12-29T07:40:35.790Z,16.30
2018-12-29T08:10:42.136Z,17.60
2018-12-29T08:40:48.227Z,19.77
2018-12-29T09:10:54.506Z,26.90
2018-12-29T09:41:00.755Z,28.37
2018-12-29T10:11:06.875Z,48.83
2018-12-29T10:41:13.210Z,30.23
2018-12-29T11:11:19.960Z,28.50
2018-12-29T11:41:26.032Z,27.20
2018-12-29T12:11:33.482Z,30.67
2018-12-29T12:41:39.895Z,77.37
2018-12-29T13:11:46.409Z,25.03
2018-12-29T13:41:52.720Z,31.77
2018-12-29T14:11:58.784Z,43.13
2018-12-29T14:42:05.707Z,20.87
2018-12-29T15:12:12.109Z,50.40
2018-12-29T15:42:19.656Z,45.57
2018-12-29T16:12:26.063Z,46.90
2018-12-29T16:42:32.165Z,37.80
2018-12-29T17:12:38.275Z,38.57
2018-12-29T17:42:45.295Z,48.30
2018-12-29T18:12:52.404Z,33.07
2018-12-29T18:42:58.666Z,41.10
2018-12-29T19:13:06.530Z,46.20
2018-12-29T19:43:13.392Z,50.07
2018-12-29T20:13:19.663Z,40.80
2018-12-29T20:43:26.144Z,45.30
2018-12-29T21:13:33.703Z,34.43
2018-12-29T21:43:39.942Z,37.47
2018-12-29T22:13:46.264Z,28.07
2018-12-29T22:43:54.317Z,26.30
2018-12-29T23:14:00.459Z,28.90
2018-12-29T23:44:06.833Z,25.20
